Time;durP1;ratioP1;P1;durP2;ratioP2;P2;SDS_P1;SDS_P2;PMS_P1;PMS_P2;Temp;Humidity;BMP_temperature;BMP_pressure;BME280_temperature;BME280_humidity;BME280_pressure;Samples;Min_cycle;Max_cycle;Signal;HPM_P1;HPM_P2
2024/04/11 00:00:48;;;;;;;;;;;;;;;11.89;54.34;103093.09;5022253;28;20028;-87
2024/04/11 00:03:15;;;;;;;;;;;;;;;11.84;54.65;103095.53;5027547;28;19940;-87
2024/04/11 00:05:44;;;;;;;;;;;;;;;11.80;54.47;103095.94;5024978;28;19920;-88
2024/04/11 00:08:15;;;;;;;;;;;;;;;11.78;54.62;103091.75;5025128;28;19958;-87
2024/04/11 00:10:50;;;;;;;;;;;;;;;11.78;54.70;103092.63;5018281;28;19917;-87
2024/04/11 00:13:18;;;;;;;;;;;;;;;11.75;54.55;103092.97;5021504;28;19924;-87
2024/04/11 00:15:53;;;;;;;;;;;;;;;11.75;54.73;103097.53;5025192;28;19917;-87
2024/04/11 00:18:26;;;;;;;;;;;;;;;11.71;54.51;103102.47;5021032;28;19925;-87
2024/04/11 00:21:00;;;;;;;;;;;;;;;11.69;54.77;103092.97;5024666;28;19964;-87
2024/04/11 00:23:26;;;;;;;;;;;;;;;11.69;54.97;103103.69;5026237;28;19960;-86
2024/04/11 00:25:56;;;;;;;;;;;;;;;11.66;55.32;103093.34;5025192;28;19929;-87
2024/04/11 00:28:25;;;;;;;;;;;;;;;11.63;55.42;103099.94;5024262;28;20933;-87
2024/04/11 00:30:59;;;;;;;;;;;;;;;11.60;55.26;103094.97;5037945;28;20020;-87
2024/04/11 00:33:32;;;;;;;;;;;;;;;11.56;55.26;103096.38;5025754;28;20068;-87
2024/04/11 00:36:07;;;;;;;;;;;;;;;11.55;55.44;103102.78;5023903;28;20008;-87
2024/04/11 00:38:33;;;;;;;;;;;;;;;11.53;55.61;103112.91;5025682;28;20274;-87
2024/04/11 00:40:59;;;;;;;;;;;;;;;11.52;55.63;103105.88;5024345;28;19952;-86
2024/04/11 00:43:35;;;;;;;;;;;;;;;11.51;55.57;103106.91;5024142;28;19917;-87
2024/04/11 00:46:06;;;;;;;;;;;;;;;11.48;55.31;103107.25;5025070;28;19968;-87
2024/04/11 00:48:36;;;;;;;;;;;;;;;11.44;55.52;103096.09;5021832;28;19917;-87
2024/04/11 00:51:07;;;;;;;;;;;;;;;11.41;55.74;103096.50;5023828;28;19952;-87
2024/04/11 00:53:32;;;;;;;;;;;;;;;11.38;55.83;103093.38;5024025;28;19928;-87
2024/04/11 00:56:00;;;;;;;;;;;;;;;11.35;55.52;103099.97;5022986;28;19913;-87
2024/04/11 00:58:28;;;;;;;;;;;;;;;11.31;55.59;103089.81;5027404;28;19925;-87
2024/04/11 01:00:57;;;;;;;;;;;;;;;11.27;55.83;103089.38;5023446;28;19925;-87
2024/04/11 01:03:26;;;;;;;;;;;;;;;11.23;55.91;103095.34;5024057;28;20396;-87
2024/04/11 01:05:53;;;;;;;;;;;;;;;11.20;55.80;103089.34;5027100;28;19936;-86
2024/04/11 01:08:18;;;;;;;;;;;;;;;11.18;55.72;103093.25;5026298;28;19979;-87
2024/04/11 01:10:46;;;;;;;;;;;;;;;11.14;55.71;103090.13;5024107;28;19960;-87
2024/04/11 01:13:17;;;;;;;;;;;;;;;11.11;55.65;103089.66;5025849;28;19932;-87
2024/04/11 01:15:43;;;;;;;;;;;;;;;11.10;55.96;103094.19;5025255;28;19917;-87
2024/04/11 01:18:12;;;;;;;;;;;;;;;11.05;55.80;103102.00;5026410;28;19929;-87
2024/04/11 01:20:39;;;;;;;;;;;;;;;11.02;55.69;103102.41;5028423;28;19957;-87
2024/04/11 01:23:08;;;;;;;;;;;;;;;10.99;55.72;103097.44;5025929;28;19924;-87
2024/04/11 01:25:38;;;;;;;;;;;;;;;10.95;55.72;103095.28;5026801;28;19924;-86
2024/04/11 01:28:09;;;;;;;;;;;;;;;10.93;55.84;103100.03;5025513;28;19921;-87
2024/04/11 01:30:39;;;;;;;;;;;;;;;10.90;55.95;103090.53;5021646;28;19917;-87
2024/04/11 01:33:09;;;;;;;;;;;;;;;10.90;55.78;103087.84;5023681;28;19917;-87
2024/04/11 01:35:35;;;;;;;;;;;;;;;10.90;55.97;103098.56;5022567;28;19924;-88
2024/04/11 01:38:05;;;;;;;;;;;;;;;10.87;56.17;103099.78;5024060;28;19925;-87
2024/04/11 01:40:47;;;;;;;;;;;;;;;10.85;56.59;103098.31;5024564;28;20368;-87
2024/04/11 01:43:15;;;;;;;;;;;;;;;10.80;56.63;103096.22;5021149;28;20361;-87
2024/04/11 01:45:43;;;;;;;;;;;;;;;10.75;57.36;103100.47;5026355;28;19923;-86
2024/04/11 01:48:13;;;;;;;;;;;;;;;10.72;57.19;103103.56;5021580;28;19925;-86
2024/04/11 01:50:41;;;;;;;;;;;;;;;10.68;56.77;103104.97;5020377;28;20003;-87
2024/04/11 01:53:08;;;;;;;;;;;;;;;10.65;57.34;103116.06;5022500;28;19935;-87
2024/04/11 01:55:36;;;;;;;;;;;;;;;10.63;56.81;103112.75;5023631;28;19917;-87
2024/04/11 01:58:04;;;;;;;;;;;;;;;10.59;56.81;103106.91;5022785;28;20312;-86
2024/04/11 02:00:36;;;;;;;;;;;;;;;10.56;56.65;103113.50;5024432;28;20378;-86
2024/04/11 02:03:13;;;;;;;;;;;;;;;10.53;56.74;103110.38;5022865;28;19921;-87
2024/04/11 02:05:46;;;;;;;;;;;;;;;10.48;56.61;103104.75;5021189;28;20003;-87
2024/04/11 02:08:13;;;;;;;;;;;;;;;10.47;56.68;103113.81;5022508;28;19921;-87
2024/04/11 02:10:39;;;;;;;;;;;;;;;10.45;56.65;103115.88;5023600;28;19924;-86
2024/04/11 02:13:05;;;;;;;;;;;;;;;10.42;57.21;103117.09;5020593;28;19986;-87
2024/04/11 02:15:32;;;;;;;;;;;;;;;10.40;57.13;103123.63;5026341;28;20377;-87
2024/04/11 02:18:07;;;;;;;;;;;;;;;10.35;57.82;103116.16;5027831;28;19921;-86
2024/04/11 02:20:32;;;;;;;;;;;;;;;10.33;56.92;103123.56;5027022;28;19927;-87
2024/04/11 02:22:59;;;;;;;;;;;;;;;10.28;57.84;103115.25;5024457;28;20443;-87
2024/04/11 02:25:29;;;;;;;;;;;;;;;10.27;57.49;103110.94;5028375;28;19948;-87
2024/04/11 02:28:05;;;;;;;;;;;;;;;10.25;57.37;103115.66;5024323;28;19987;-87
2024/04/11 02:30:33;;;;;;;;;;;;;;;10.21;57.37;103103.63;5042630;28;19925;-86
2024/04/11 02:33:01;;;;;;;;;;;;;;;10.19;57.74;103113.66;5023493;28;20025;-87
2024/04/11 02:35:26;;;;;;;;;;;;;;;10.17;57.63;103116.53;5026241;28;20353;-86
2024/04/11 02:43:40;;;;;;;;;;;;;;;10.09;57.99;103122.00;5118456;27;19970;-86
2024/04/11 02:46:15;;;;;;;;;;;;;;;10.09;57.55;103126.53;5120938;28;20006;-85
2024/04/11 02:48:43;;;;;;;;;;;;;;;10.07;57.37;103116.00;5117467;27;20023;-87
2024/04/11 02:51:09;;;;;;;;;;;;;;;10.05;57.40;103126.06;5117106;27;19970;-87
2024/04/11 02:53:38;;;;;;;;;;;;;;;10.03;57.48;103122.72;5119706;27;19947;-86
2024/04/11 02:56:12;;;;;;;;;;;;;;;10.01;57.11;103111.38;5119348;27;19941;-86
2024/04/11 02:58:41;;;;;;;;;;;;;;;9.99;57.17;103105.38;5105708;28;20388;-85
2024/04/11 03:01:16;;;;;;;;;;;;;;;9.97;57.65;103105.56;5120849;28;19920;-86
2024/04/11 03:03:42;;;;;;;;;;;;;;;9.95;57.95;103112.97;5117461;27;20286;-87
2024/04/11 03:06:12;;;;;;;;;;;;;;;9.94;57.99;103107.81;5120522;27;20541;-86
2024/04/11 03:08:56;;;;;;;;;;;;;;;9.93;57.91;103106.97;5121369;27;19922;-85
2024/04/11 03:11:34;;;;;;;;;;;;;;;9.90;57.90;103099.31;5122475;27;19920;-87
2024/04/11 03:14:00;;;;;;;;;;;;;;;9.90;57.95;103098.47;5120437;27;19920;-86
2024/04/11 03:16:30;;;;;;;;;;;;;;;9.88;57.80;103098.66;5119990;27;19923;-86
2024/04/11 03:18:57;;;;;;;;;;;;;;;9.86;57.79;103100.69;5118168;27;19964;-87
2024/04/11 03:21:34;;;;;;;;;;;;;;;9.87;57.94;103101.50;5120348;27;20363;-86
2024/04/11 03:24:02;;;;;;;;;;;;;;;9.88;58.01;103101.34;5116651;28;20022;-86
2024/04/11 03:26:30;;;;;;;;;;;;;;;9.90;57.96;103096.63;5116273;27;20453;-86
2024/04/11 03:28:58;;;;;;;;;;;;;;;9.91;58.12;103098.28;5116967;27;19926;-86
2024/04/11 03:31:28;;;;;;;;;;;;;;;9.93;58.05;103096.25;5119100;27;19924;-86
2024/04/11 03:33:59;;;;;;;;;;;;;;;9.92;58.82;103094.59;5116909;27;20399;-85
2024/04/11 03:36:32;;;;;;;;;;;;;;;9.93;58.18;103103.47;5112179;27;19916;-86
2024/04/11 03:39:11;;;;;;;;;;;;;;;9.93;57.90;103095.44;5116280;27;19920;-86
2024/04/11 03:41:40;;;;;;;;;;;;;;;9.91;58.24;103100.97;5118770;27;19931;-87
2024/04/11 03:44:09;;;;;;;;;;;;;;;9.87;58.30;103099.66;5116495;27;20019;-86
2024/04/11 03:46:39;;;;;;;;;;;;;;;9.84;58.61;103097.34;5119374;27;20309;-87
2024/04/11 03:49:10;;;;;;;;;;;;;;;9.81;58.79;103095.06;5119250;27;19958;-87
2024/04/11 03:51:49;;;;;;;;;;;;;;;9.79;58.79;103102.44;5114712;27;20362;-86
2024/04/11 03:54:17;;;;;;;;;;;;;;;9.78;59.11;103102.63;5103637;28;19931;-86
2024/04/11 03:56:46;;;;;;;;;;;;;;;9.78;59.29;103094.59;5106461;28;19937;-86
2024/04/11 03:59:11;;;;;;;;;;;;;;;9.78;59.30;103098.13;5104446;28;19923;-86
2024/04/11 04:01:41;;;;;;;;;;;;;;;9.79;60.22;103106.97;5100220;28;19924;-86
2024/04/11 04:04:19;;;;;;;;;;;;;;;9.78;59.66;103110.66;5101544;28;20239;-86
2024/04/11 04:06:46;;;;;;;;;;;;;;;9.78;59.73;103108.81;5102526;27;19938;-85
2024/04/11 04:09:15;;;;;;;;;;;;;;;9.76;59.74;103113.53;5101468;28;20379;-86
2024/04/11 04:11:42;;;;;;;;;;;;;;;9.72;60.03;103112.25;5103065;28;19919;-87
2024/04/11 04:14:09;;;;;;;;;;;;;;;9.67;60.31;103112.78;5099843;28;19924;-86
2024/04/11 04:16:41;;;;;;;;;;;;;;;9.63;60.01;103113.34;5102605;27;20403;-87
2024/04/11 04:19:10;;;;;;;;;;;;;;;9.61;60.10;103107.34;5103940;28;21287;-86
2024/04/11 04:21:48;;;;;;;;;;;;;;;9.59;59.90;103117.41;5102455;27;19950;-87
2024/04/11 04:24:22;;;;;;;;;;;;;;;9.56;60.35;103115.09;5099153;28;20027;-87
2024/04/11 04:26:49;;;;;;;;;;;;;;;9.56;60.80;103110.56;5104055;27;19995;-86
2024/04/11 04:29:23;;;;;;;;;;;;;;;9.56;60.93;103110.56;5103272;28;19939;-85
2024/04/11 04:31:49;;;;;;;;;;;;;;;9.56;61.04;103109.75;5105161;28;20003;-86
2024/04/11 04:34:17;;;;;;;;;;;;;;;9.58;61.35;103113.06;5105407;28;20069;-86
2024/04/11 04:36:47;;;;;;;;;;;;;;;9.58;60.89;103121.09;5099481;28;20559;-86
2024/04/11 04:39:13;;;;;;;;;;;;;;;9.58;61.19;103116.56;5101507;28;19916;-86
2024/04/11 04:41:49;;;;;;;;;;;;;;;9.58;61.20;103115.75;5099799;28;19920;-86
2024/04/11 04:44:22;;;;;;;;;;;;;;;9.57;61.60;103124.78;5097878;28;19916;-86
2024/04/11 04:46:49;;;;;;;;;;;;;;;9.59;60.96;103126.25;5104487;28;19939;-85
2024/04/11 04:49:17;;;;;;;;;;;;;;;9.61;62.06;103123.41;5105978;28;19916;-86
2024/04/11 04:51:46;;;;;;;;;;;;;;;9.63;61.78;103126.72;5100371;28;20273;-85
2024/04/11 04:54:16;;;;;;;;;;;;;;;9.66;61.38;103129.84;5103834;28;20520;-86
2024/04/11 04:56:45;;;;;;;;;;;;;;;9.72;61.47;103130.16;5098530;28;19984;-86
2024/04/11 04:59:12;;;;;;;;;;;;;;;9.74;61.35;103130.81;5098029;28;19916;-86
2024/04/11 05:01:40;;;;;;;;;;;;;;;9.79;61.64;103121.19;5104468;28;19924;-87
2024/04/11 05:04:13;;;;;;;;;;;;;;;9.84;61.37;103118.78;5103171;28;19916;-87
2024/04/11 05:06:43;;;;;;;;;;;;;;;9.92;62.17;103121.38;5101766;28;19947;-87
2024/04/11 05:09:10;;;;;;;;;;;;;;;10.00;61.98;103123.94;5103649;28;19923;-86
2024/04/11 05:11:35;;;;;;;;;;;;;;;10.07;61.93;103115.19;5103470;28;20707;-87
2024/04/11 05:14:07;;;;;;;;;;;;;;;10.14;62.14;103122.28;5105536;28;20010;-87
2024/04/11 05:16:34;;;;;;;;;;;;;;;10.21;61.96;103112.47;5104186;28;19924;-87
2024/04/11 05:18:59;;;;;;;;;;;;;;;10.28;62.04;103109.91;5103360;28;20410;-87
2024/04/11 05:21:26;;;;;;;;;;;;;;;10.36;62.62;103109.78;5099881;28;19970;-87
2024/04/11 05:24:05;;;;;;;;;;;;;;;10.42;63.12;103108.22;5102596;28;19924;-87
2024/04/11 05:26:32;;;;;;;;;;;;;;;10.49;64.04;103107.25;5103157;28;19946;-88
2024/04/11 05:28:57;;;;;;;;;;;;;;;10.54;64.24;103110.19;5105416;28;19920;-86
2024/04/11 05:31:28;;;;;;;;;;;;;;;10.61;64.25;103110.28;5102961;28;19923;-87
2024/04/11 05:33:54;;;;;;;;;;;;;;;10.70;64.30;103109.09;5101629;28;19951;-87
2024/04/11 05:36:25;;;;;;;;;;;;;;;10.81;63.61;103110.47;5104853;28;20467;-86
2024/04/11 05:38:53;;;;;;;;;;;;;;;10.89;65.04;103110.31;5108791;28;20277;-87
2024/04/11 05:41:24;;;;;;;;;;;;;;;10.99;64.24;103110.84;5104554;28;19930;-87
2024/04/11 05:44:20;;;;;;;;;;;;;;;11.08;65.76;103106.97;5103464;28;19920;-90
2024/04/11 05:46:49;;;;;;;;;;;;;;;11.20;65.24;103096.56;5108776;28;19922;-96
2024/04/11 05:49:20;;;;;;;;;;;;;;;11.32;65.88;103104.91;5098607;28;19916;-96
2024/04/11 05:51:47;;;;;;;;;;;;;;;11.41;65.18;103107.22;5103349;28;19924;-95
2024/04/11 05:54:17;;;;;;;;;;;;;;;11.51;65.88;103106.91;5102306;28;19934;-95
2024/04/11 05:56:52;;;;;;;;;;;;;;;11.61;64.86;103095.78;5101916;27;19920;-95
2024/04/11 05:59:21;;;;;;;;;;;;;;;11.71;65.11;103101.66;5102790;28;19919;-95
2024/04/11 06:01:50;;;;;;;;;;;;;;;11.80;65.02;103095.94;5105897;28;19916;-96
2024/04/11 06:04:25;;;;;;;;;;;;;;;11.93;66.73;103099.72;5103230;28;19920;-93
2024/04/11 06:06:53;;;;;;;;;;;;;;;12.01;65.92;103103.03;5106519;28;19912;-91
2024/04/11 06:09:18;;;;;;;;;;;;;;;12.11;64.62;103102.69;5109748;28;19925;-90
2024/04/11 06:11:48;;;;;;;;;;;;;;;12.19;64.65;103107.03;5106110;28;19918;-90
2024/04/11 06:14:14;;;;;;;;;;;;;;;12.27;64.00;103107.72;5103101;28;19915;-88
2024/04/11 06:16:39;;;;;;;;;;;;;;;12.33;64.40;103114.97;5090771;28;19935;-93
2024/04/11 06:19:07;;;;;;;;;;;;;;;12.41;64.63;103108.59;5105056;28;19915;-88
2024/04/11 06:21:45;;;;;;;;;;;;;;;12.49;64.56;103111.06;5102733;28;19919;-93
2024/04/11 06:24:24;;;;;;;;;;;;;;;12.61;64.51;103103.25;5099455;28;19976;-93
2024/04/11 06:26:53;;;;;;;;;;;;;;;12.70;64.51;103097.47;5109386;28;19912;-93
2024/04/11 06:29:22;;;;;;;;;;;;;;;12.82;64.45;103100.38;5102834;28;19915;-91
2024/04/11 06:31:48;;;;;;;;;;;;;;;12.96;63.90;103101.22;5101148;28;19911;-90
2024/04/11 06:34:14;;;;;;;;;;;;;;;13.08;63.91;103098.72;5104446;28;19992;-92
2024/04/11 06:36:41;;;;;;;;;;;;;;;13.18;63.69;103099.16;5101920;28;19954;-90
2024/04/11 06:39:13;;;;;;;;;;;;;;;13.29;63.49;103093.16;5100308;28;19939;-90
2024/04/11 06:41:39;;;;;;;;;;;;;;;13.39;63.19;103090.84;5099442;28;19924;-93
2024/04/11 06:44:05;;;;;;;;;;;;;;;13.47;62.87;103093.34;5102826;28;19923;-93
2024/04/11 06:46:33;;;;;;;;;;;;;;;13.58;62.82;103089.16;5103353;28;19920;-90
2024/04/11 06:49:02;;;;;;;;;;;;;;;13.67;62.55;103093.28;5099913;28;19916;-93
2024/04/11 06:51:30;;;;;;;;;;;;;;;13.77;62.52;103093.66;5107719;28;19920;-93
2024/04/11 06:54:00;;;;;;;;;;;;;;;13.82;61.89;103087.63;5102158;28;19962;-92
2024/04/11 06:56:30;;;;;;;;;;;;;;;13.91;61.96;103092.59;5105750;28;20399;-88
2024/04/11 06:58:57;;;;;;;;;;;;;;;13.96;61.98;103097.31;5103981;28;19916;-92
2024/04/11 07:01:27;;;;;;;;;;;;;;;14.11;61.46;103103.28;5108760;28;19916;-91
2024/04/11 07:04:06;;;;;;;;;;;;;;;14.22;61.53;103099.09;5103192;28;19927;-90
2024/04/11 07:06:35;;;;;;;;;;;;;;;14.39;61.52;103104.81;5105931;28;20371;-91
2024/04/11 07:09:03;;;;;;;;;;;;;;;14.57;61.36;103099.53;5097662;28;19920;-90
2024/04/11 07:11:32;;;;;;;;;;;;;;;14.77;60.58;103092.13;5101915;28;20371;-90
2024/04/11 07:14:05;;;;;;;;;;;;;;;14.95;60.05;103102.16;5100255;28;19927;-90
2024/04/11 07:16:32;;;;;;;;;;;;;;;15.10;59.52;103088.34;5101218;28;19916;-90
2024/04/11 07:18:59;;;;;;;;;;;;;;;15.27;59.12;103083.19;5101665;28;20388;-91
2024/04/11 07:21:34;;;;;;;;;;;;;;;15.46;57.82;103086.75;5099843;28;19919;-89
2024/04/11 07:24:00;;;;;;;;;;;;;;;15.61;57.88;103087.22;5103202;28;20492;-90
2024/04/11 07:26:48;;;;;;;;;;;;;;;15.75;56.99;103077.91;5106496;28;19919;-92
2024/04/11 07:29:15;;;;;;;;;;;;;;;15.86;56.22;103071.75;5102111;28;19916;-88
2024/04/11 07:31:48;;;;;;;;;;;;;;;15.99;55.58;103073.47;5106404;28;19945;-88
2024/04/11 07:34:14;;;;;;;;;;;;;;;16.11;56.25;103073.50;5103469;28;19915;-90
2024/04/11 07:36:48;;;;;;;;;;;;;;;16.25;55.60;103086.63;5109190;28;19930;-89
2024/04/11 07:39:16;;;;;;;;;;;;;;;16.30;54.80;103075.94;5107783;28;19992;-89
2024/04/11 07:42:18;;;;;;;;;;;;;;;16.33;54.38;103071.94;5102576;28;20385;-92
2024/04/11 07:44:45;;;;;;;;;;;;;;;16.35;54.14;103075.28;5107608;28;19920;-91
2024/04/11 07:47:13;;;;;;;;;;;;;;;16.46;54.48;103079.06;5107647;28;19912;-89
2024/04/11 07:49:41;;;;;;;;;;;;;;;16.58;54.11;103085.34;5108733;28;19924;-89
2024/04/11 07:52:10;;;;;;;;;;;;;;;16.71;54.00;103087.06;5113207;28;20006;-90
2024/04/11 07:54:36;;;;;;;;;;;;;;;16.83;53.73;103082.47;5109795;28;20562;-89
2024/04/11 07:57:03;;;;;;;;;;;;;;;16.93;52.80;103082.72;5110397;28;19920;-89
2024/04/11 07:59:29;;;;;;;;;;;;;;;17.03;52.66;103082.13;5108499;28;20192;-90
2024/04/11 08:01:56;;;;;;;;;;;;;;;17.17;51.82;103072.72;5110764;28;19967;-90
2024/04/11 08:04:22;;;;;;;;;;;;;;;17.30;51.49;103083.31;5112038;28;19920;-91
2024/04/11 08:06:59;;;;;;;;;;;;;;;17.43;51.51;103066.84;5107457;28;19912;-90
2024/04/11 08:09:40;;;;;;;;;;;;;;;17.55;50.97;103063.25;5107405;28;20379;-91
2024/04/11 08:12:07;;;;;;;;;;;;;;;17.70;50.59;103071.75;5105697;28;20276;-92
2024/04/11 08:14:33;;;;;;;;;;;;;;;17.88;50.05;103087.03;5108383;28;19977;-92
2024/04/11 08:17:13;;;;;;;;;;;;;;;18.05;50.35;103074.34;5109445;28;19920;-88
2024/04/11 08:19:43;;;;;;;;;;;;;;;18.18;49.75;103074.06;5108469;28;19923;-90
2024/04/11 08:22:09;;;;;;;;;;;;;;;18.32;49.78;103063.75;5123708;27;19920;-88
2024/04/11 08:24:43;;;;;;;;;;;;;;;18.39;48.77;103075.28;5105354;28;19920;-91
2024/04/11 08:27:10;;;;;;;;;;;;;;;18.30;47.83;103066.69;5101318;28;19946;-87
2024/04/11 08:29:38;;;;;;;;;;;;;;;18.28;47.72;103076.97;5099494;28;19916;-90
2024/04/11 08:32:03;;;;;;;;;;;;;;;18.24;47.79;103078.53;5102319;28;20420;-91
2024/04/11 08:34:30;;;;;;;;;;;;;;;18.26;47.34;103062.81;5096953;28;19923;-90
2024/04/11 08:37:16;;;;;;;;;;;;;;;18.42;47.31;103064.75;5103016;28;20012;-90
2024/04/11 08:39:52;;;;;;;;;;;;;;;18.60;47.11;103071.84;5102856;28;19916;-90
2024/04/11 08:42:20;;;;;;;;;;;;;;;18.72;46.57;103063.66;5105456;28;19920;-90
2024/04/11 08:44:47;;;;;;;;;;;;;;;18.87;44.99;103084.81;5102508;28;19927;-90
2024/04/11 08:47:14;;;;;;;;;;;;;;;18.90;42.42;103066.13;5105356;28;19916;-92
2024/04/11 08:49:40;;;;;;;;;;;;;;;18.94;43.41;103069.97;5107484;28;20282;-89
2024/04/11 08:52:07;;;;;;;;;;;;;;;19.05;42.56;103070.16;5107823;28;20376;-91
2024/04/11 08:54:39;;;;;;;;;;;;;;;19.16;42.63;103069.22;5105636;28;20379;-87
2024/04/11 08:57:08;;;;;;;;;;;;;;;19.19;41.86;103063.28;5105284;28;19995;-87
2024/04/11 08:59:34;;;;;;;;;;;;;;;19.18;41.80;103067.06;5100814;28;20012;-89
2024/04/11 09:02:00;;;;;;;;;;;;;;;19.18;41.43;103072.50;5104795;28;20364;-88
2024/04/11 09:04:25;;;;;;;;;;;;;;;19.17;40.85;103076.28;5108484;28;20014;-88
2024/04/11 09:06:53;;;;;;;;;;;;;;;19.10;40.10;103072.94;5107774;28;19919;-89
2024/04/11 09:09:23;;;;;;;;;;;;;;;19.11;39.99;103067.25;5104469;28;19961;-86
2024/04/11 09:11:57;;;;;;;;;;;;;;;19.15;40.39;103079.25;5100603;28;20006;-91
2024/04/11 09:14:26;;;;;;;;;;;;;;;19.25;40.70;103079.44;5104204;28;19954;-91
2024/04/11 09:17:04;;;;;;;;;;;;;;;19.34;40.28;103087.97;5102911;28;19981;-83
2024/04/11 09:19:39;;;;;;;;;;;;;;;19.40;39.77;103080.72;5099410;28;20428;-84
2024/04/11 09:22:21;;;;;;;;;;;;;;;19.36;38.49;103091.25;5102348;28;19974;-84
2024/04/11 09:24:48;;;;;;;;;;;;;;;19.35;39.28;103089.59;5100760;28;19916;-86
2024/04/11 09:27:17;;;;;;;;;;;;;;;19.37;39.54;103098.31;5106401;28;19919;-92
2024/04/11 09:29:44;;;;;;;;;;;;;;;19.45;39.28;103099.81;5106619;28;20371;-88
2024/04/11 09:32:21;;;;;;;;;;;;;;;19.49;38.90;103090.91;5110817;28;19966;-89
2024/04/11 09:34:56;;;;;;;;;;;;;;;19.57;38.71;103092.41;5100714;28;20539;-92
2024/04/11 09:37:26;;;;;;;;;;;;;;;19.56;38.38;103080.69;5095546;28;19929;-92
2024/04/11 09:39:56;;;;;;;;;;;;;;;19.59;38.61;103082.09;5098602;28;19923;-88
2024/04/11 09:42:25;;;;;;;;;;;;;;;19.58;38.72;103083.16;5105015;28;20388;-86
2024/04/11 09:44:53;;;;;;;;;;;;;;;19.63;38.51;103085.94;5108267;28;19965;-89
2024/04/11 09:47:34;;;;;;;;;;;;;;;19.60;37.88;103079.13;5106271;28;19924;-90
2024/04/11 09:50:04;;;;;;;;;;;;;;;19.60;38.33;103081.03;5107637;28;19958;-89
2024/04/11 09:52:34;;;;;;;;;;;;;;;19.65;38.72;103085.69;5112116;28;19951;-88
2024/04/11 09:55:07;;;;;;;;;;;;;;;19.76;39.00;103084.75;5102644;28;20003;-89
2024/04/11 09:57:34;;;;;;;;;;;;;;;19.85;38.64;103088.66;5105105;28;19916;-92
2024/04/11 10:00:18;;;;;;;;;;;;;;;19.84;38.43;103087.03;5103573;28;19912;-90
2024/04/11 10:02:52;;;;;;;;;;;;;;;19.81;38.27;103088.34;5107786;28;20681;-90
2024/04/11 10:05:23;;;;;;;;;;;;;;;19.85;38.71;103083.22;5103150;28;19915;-93
2024/04/11 10:07:58;;;;;;;;;;;;;;;19.95;39.15;103083.34;5109544;28;20387;-87
2024/04/11 10:10:34;;;;;;;;;;;;;;;20.00;38.07;103074.44;5106553;28;19916;-89
2024/04/11 10:13:04;;;;;;;;;;;;;;;20.01;38.06;103081.50;5109657;28;20387;-89
2024/04/11 10:15:33;;;;;;;;;;;;;;;20.00;38.29;103075.25;5109075;28;20399;-89
2024/04/11 10:18:03;;;;;;;;;;;;;;;20.01;38.14;103076.06;5109204;28;19929;-90
2024/04/11 10:20:46;;;;;;;;;;;;;;;20.03;37.68;103074.72;5108486;28;19920;-87
2024/04/11 10:23:15;;;;;;;;;;;;;;;20.12;38.02;103078.66;5107904;28;19930;-91
2024/04/11 10:25:49;;;;;;;;;;;;;;;20.17;37.92;103075.16;5111495;28;20422;-88
2024/04/11 10:28:16;;;;;;;;;;;;;;;20.22;37.43;103075.19;5109220;28;19939;-88
2024/04/11 10:30:43;;;;;;;;;;;;;;;20.22;37.44;103078.75;5111182;28;19930;-88
2024/04/11 10:33:13;;;;;;;;;;;;;;;20.29;36.95;103078.56;5107351;28;19919;-91
2024/04/11 10:35:49;;;;;;;;;;;;;;;20.29;37.08;103073.13;5108563;28;20002;-90
2024/04/11 10:38:26;;;;;;;;;;;;;;;20.31;36.50;103068.22;5105347;28;20003;-88
2024/04/11 10:40:52;;;;;;;;;;;;;;;20.36;36.34;103056.56;5100027;28;20082;-91
2024/04/11 10:43:24;;;;;;;;;;;;;;;20.35;36.15;103065.81;5110166;28;19927;-91
2024/04/11 10:45:52;;;;;;;;;;;;;;;20.37;36.17;103067.19;5107488;28;19942;-90
2024/04/11 10:48:19;;;;;;;;;;;;;;;20.44;36.37;103076.00;5105544;28;19920;-90
2024/04/11 10:51:00;;;;;;;;;;;;;;;20.48;36.01;103065.44;5106060;28;19923;-91
2024/04/11 10:53:27;;;;;;;;;;;;;;;20.52;36.11;103067.38;5108408;28;19916;-88
2024/04/11 10:56:20;;;;;;;;;;;;;;;20.52;35.90;103067.38;5106988;28;19920;-86
2024/04/11 10:58:53;;;;;;;;;;;;;;;20.56;35.92;103067.66;5100293;28;19912;-94
2024/04/11 11:01:18;;;;;;;;;;;;;;;20.56;35.94;103067.66;5116734;28;19930;-87
2024/04/11 11:06:25;;;;;;;;;;;;;;;20.59;35.57;103063.59;5111780;28;19931;-91
2024/04/11 11:09:10;;;;;;;;;;;;;;;20.59;34.67;103071.78;5110562;28;19937;-88
2024/04/11 11:11:42;;;;;;;;;;;;;;;20.64;35.22;103066.34;5108349;28;19947;-87
2024/04/11 11:14:10;;;;;;;;;;;;;;;20.69;35.55;103067.25;5114005;28;19912;-88
2024/04/11 11:16:44;;;;;;;;;;;;;;;20.72;35.23;103065.91;5111550;27;19916;-87
2024/04/11 11:19:16;;;;;;;;;;;;;;;20.74;35.13;103069.19;5111412;28;20352;-86
2024/04/11 11:21:50;;;;;;;;;;;;;;;20.75;35.04;103071.63;5108942;28;19920;-86
2024/04/11 11:24:26;;;;;;;;;;;;;;;20.74;34.96;103061.81;5110071;28;19924;-88
2024/04/11 11:27:01;;;;;;;;;;;;;;;20.75;35.17;103066.19;5109975;28;19919;-89
2024/04/11 11:29:42;;;;;;;;;;;;;;;20.78;35.22;103064.84;5110227;28;19920;-91
2024/04/11 11:32:20;;;;;;;;;;;;;;;20.75;35.07;103060.75;5109453;28;19954;-87
2024/04/11 11:34:47;;;;;;;;;;;;;;;20.75;35.21;103054.47;5105330;28;19923;-89
2024/04/11 11:37:21;;;;;;;;;;;;;;;20.76;35.31;103056.09;5110329;28;19922;-87
2024/04/11 11:39:50;;;;;;;;;;;;;;;20.77;35.33;103058.56;5107418;28;20422;-82
2024/04/11 11:42:32;;;;;;;;;;;;;;;20.81;35.50;103040.63;5109444;28;20538;-83
2024/04/11 11:45:06;;;;;;;;;;;;;;;20.85;35.44;103040.13;5109101;28;19923;-83
2024/04/11 11:47:34;;;;;;;;;;;;;;;20.86;35.16;103039.03;5110181;28;19921;-83
2024/04/11 11:50:18;;;;;;;;;;;;;;;20.90;35.16;103056.50;5109022;28;19916;-88
2024/04/11 11:55:55;;;;;;;;;;;;;;;20.90;34.62;103046.41;5108315;28;19923;-83
2024/04/11 11:58:25;;;;;;;;;;;;;;;20.94;34.61;103044.78;5111477;28;19916;-84
2024/04/11 12:00:59;;;;;;;;;;;;;;;20.97;34.87;103046.19;5108186;28;19924;-87
2024/04/11 12:03:43;;;;;;;;;;;;;;;20.96;34.67;103045.34;5109085;28;19922;-85
2024/04/11 12:06:21;;;;;;;;;;;;;;;20.95;34.83;103048.34;5109632;28;20600;-90
2024/04/11 12:08:46;;;;;;;;;;;;;;;20.98;33.87;103054.09;5109018;28;19973;-82
2024/04/11 12:13:51;;;;;;;;;;;;;;;20.96;34.07;103049.97;5107225;28;19920;-90
2024/04/11 12:16:19;;;;;;;;;;;;;;;20.98;34.23;103047.81;5110537;28;19931;-89
2024/04/11 12:18:48;;;;;;;;;;;;;;;20.99;33.91;103041.28;5108580;28;20371;-83
2024/04/11 12:21:18;;;;;;;;;;;;;;;21.03;33.88;103037.78;5109123;28;19923;-88
2024/04/11 12:23:47;;;;;;;;;;;;;;;21.07;34.23;103048.97;5105480;28;20017;-87
2024/04/11 12:26:14;;;;;;;;;;;;;;;21.13;34.62;103046.00;5095614;28;19920;-89
2024/04/11 12:28:45;;;;;;;;;;;;;;;21.25;34.39;103048.56;5094718;28;19962;-88
2024/04/11 12:31:15;;;;;;;;;;;;;;;21.32;34.39;103042.88;5097660;28;19951;-89
2024/04/11 12:33:45;;;;;;;;;;;;;;;21.42;34.02;103049.22;5108147;28;19916;-89
2024/04/11 12:39:12;;;;;;;;;;;;;;;21.54;34.01;103038.06;5110929;28;19926;-90
2024/04/11 12:41:50;;;;;;;;;;;;;;;21.56;33.37;103038.63;5102221;28;19931;-90
2024/04/11 12:44:26;;;;;;;;;;;;;;;21.54;33.24;103029.88;5105733;28;19941;-87
2024/04/11 12:46:57;;;;;;;;;;;;;;;21.51;32.72;103032.31;5101707;28;19920;-87
2024/04/11 12:49:26;;;;;;;;;;;;;;;21.46;33.20;103026.84;5103632;28;19931;-89
2024/04/11 12:51:55;;;;;;;;;;;;;;;21.47;33.30;103029.31;5105271;28;19915;-89
2024/04/11 12:54:34;;;;;;;;;;;;;;;21.47;33.55;103032.03;5105114;28;19915;-87
2024/04/11 12:57:04;;;;;;;;;;;;;;;21.46;33.25;103026.84;5120082;27;19946;-87
2024/04/11 12:59:30;;;;;;;;;;;;;;;21.44;33.47;103032.56;5100318;28;19916;-88
2024/04/11 13:01:56;;;;;;;;;;;;;;;21.39;32.90;103033.38;5100150;28;19920;-88
2024/04/11 13:04:27;;;;;;;;;;;;;;;21.31;33.23;103035.78;5103404;28;20026;-90
2024/04/11 13:06:58;;;;;;;;;;;;;;;21.34;33.46;103022.44;5104226;28;20448;-87
2024/04/11 13:09:31;;;;;;;;;;;;;;;21.35;33.51;103025.97;5104430;28;19932;-88
2024/04/11 13:12:09;;;;;;;;;;;;;;;21.32;33.16;103027.31;5102840;28;19920;-88